createdAt,value
2017-08-13T00:00:13.503Z,17.02
2017-08-13T00:01:12.462Z,17.06
2017-08-13T00:02:13.014Z,16.96
2017-08-13T00:03:12.466Z,16.93
2017-08-13T00:04:12.773Z,16.9
2017-08-13T00:05:13.139Z,16.93
2017-08-13T00:06:12.782Z,16.93
2017-08-13T00:07:12.919Z,16.87
2017-08-13T00:08:12.934Z,16.87
2017-08-13T00:09:12.766Z,16.87
2017-08-13T00:10:13.679Z,16.83
2017-08-13T00:11:12.611Z,16.86
2017-08-13T00:12:13.088Z,16.86
2017-08-13T00:13:12.498Z,16.83
2017-08-13T00:14:12.783Z,16.81
2017-08-13T00:15:13.761Z,16.86
2017-08-13T00:16:12.789Z,16.89
2017-08-13T00:17:12.480Z,16.84
2017-08-13T00:18:12.964Z,16.86
2017-08-13T00:19:12.485Z,16.89
2017-08-13T00:20:13.718Z,16.83
2017-08-13T00:21:12.481Z,16.9
2017-08-13T00:22:12.198Z,16.83
2017-08-13T00:23:12.791Z,16.78
2017-08-13T00:24:12.788Z,16.83
2017-08-13T00:25:14.260Z,16.83
2017-08-13T00:26:12.491Z,16.86
2017-08-13T00:27:12.485Z,16.87
2017-08-13T00:28:12.489Z,16.86
2017-08-13T00:29:13.061Z,16.81
2017-08-13T00:30:13.270Z,16.86
2017-08-13T00:31:12.798Z,16.81
2017-08-13T00:32:12.793Z,16.83
2017-08-13T00:33:12.494Z,16.81
2017-08-13T00:34:12.798Z,16.86
2017-08-13T00:35:14.026Z,16.84
2017-08-13T00:36:12.798Z,16.99
2017-08-13T00:37:12.914Z,16.86
2017-08-13T00:38:12.922Z,16.99
2017-08-13T00:39:12.626Z,16.9
2017-08-13T00:40:13.737Z,16.91
2017-08-13T00:41:13.054Z,16.86
2017-08-13T00:42:12.839Z,16.84
2017-08-13T00:43:12.533Z,16.79
2017-08-13T00:44:12.627Z,16.86
2017-08-13T00:45:14.131Z,16.84
2017-08-13T00:46:12.829Z,16.83
2017-08-13T00:47:12.643Z,16.79
2017-08-13T00:48:12.972Z,16.72
2017-08-13T00:49:12.512Z,16.81
2017-08-13T00:50:13.693Z,16.78
2017-08-13T00:51:12.831Z,16.71
2017-08-13T00:52:12.520Z,16.66
2017-08-13T00:53:12.833Z,16.69
2017-08-13T00:54:12.831Z,16.61
2017-08-13T00:55:14.526Z,16.56
2017-08-13T00:56:12.834Z,16.65
2017-08-13T00:57:12.518Z,16.51
2017-08-13T00:58:12.520Z,16.64
2017-08-13T00:59:12.835Z,16.65
2017-08-13T01:00:14.238Z,16.58
2017-08-13T01:01:12.526Z,16.5
2017-08-13T01:02:12.841Z,16.54
2017-08-13T01:03:12.835Z,16.65
2017-08-13T01:04:12.544Z,16.75
2017-08-13T01:05:14.051Z,16.81
2017-08-13T01:06:12.553Z,16.76
2017-08-13T01:07:12.840Z,16.75
2017-08-13T01:08:12.846Z,16.76
2017-08-13T01:09:12.844Z,16.79
2017-08-13T01:10:13.680Z,16.68
2017-08-13T01:11:12.838Z,16.75
2017-08-13T01:12:12.554Z,16.69
2017-08-13T01:13:12.849Z,16.72
2017-08-13T01:14:15.238Z,16.64
2017-08-13T01:15:13.794Z,16.56
2017-08-13T01:16:12.551Z,16.54
2017-08-13T01:17:12.844Z,16.65
2017-08-13T01:18:12.244Z,16.51
2017-08-13T01:19:12.544Z,16.49
2017-08-13T01:20:14.088Z,16.46
2017-08-13T01:21:12.564Z,16.41
2017-08-13T01:22:12.554Z,16.47
2017-08-13T01:23:12.259Z,16.38
2017-08-13T01:24:12.548Z,16.53
2017-08-13T01:25:14.466Z,16.6
2017-08-13T01:26:12.846Z,16.56
2017-08-13T01:27:12.846Z,16.66
2017-08-13T01:28:12.552Z,16.71
2017-08-13T01:29:12.848Z,16.65
2017-08-13T01:30:14.317Z,16.72
2017-08-13T01:31:12.848Z,16.66
2017-08-13T01:32:12.846Z,16.66
2017-08-13T01:33:12.850Z,16.66
2017-08-13T01:34:12.553Z,16.68
2017-08-13T01:35:14.550Z,16.71
2017-08-13T01:36:12.850Z,16.71
2017-08-13T01:37:12.853Z,16.69
2017-08-13T01:38:12.856Z,16.66
2017-08-13T01:39:12.853Z,16.75
2017-08-13T01:40:13.961Z,16.69
2017-08-13T01:41:12.855Z,16.69
2017-08-13T01:42:12.868Z,16.74
2017-08-13T01:43:12.861Z,16.68
2017-08-13T01:44:12.558Z,16.71
2017-08-13T01:45:14.529Z,16.71
2017-08-13T01:46:12.572Z,16.74
2017-08-13T01:47:12.918Z,16.71
2017-08-13T01:48:12.568Z,16.64
2017-08-13T01:49:12.927Z,16.57
2017-08-13T01:50:14.179Z,16.58
2017-08-13T01:51:12.309Z,16.5
2017-08-13T01:52:12.893Z,16.54
2017-08-13T01:53:12.917Z,16.54
2017-08-13T01:54:12.664Z,16.64
2017-08-13T01:55:14.028Z,16.58
2017-08-13T01:56:12.602Z,16.56
2017-08-13T01:57:12.631Z,16.65
2017-08-13T01:58:12.869Z,16.61
2017-08-13T01:59:12.865Z,16.54
2017-08-13T02:00:14.236Z,16.58
2017-08-13T02:01:12.868Z,16.58
2017-08-13T02:02:12.870Z,16.57
2017-08-13T02:03:12.874Z,16.68
2017-08-13T02:04:12.875Z,16.66
2017-08-13T02:05:14.391Z,16.69
2017-08-13T02:06:12.639Z,16.66
2017-08-13T02:07:12.937Z,16.74
2017-08-13T02:08:12.574Z,16.69
2017-08-13T02:09:12.870Z,16.72
2017-08-13T02:10:13.340Z,16.71
2017-08-13T02:11:12.877Z,16.72
2017-08-13T02:12:12.873Z,16.71
2017-08-13T02:13:12.586Z,16.74
2017-08-13T02:14:12.578Z,16.71
2017-08-13T02:15:14.385Z,16.71
2017-08-13T02:16:12.272Z,16.74
2017-08-13T02:17:12.880Z,16.75
2017-08-13T02:18:12.577Z,16.86
2017-08-13T02:19:12.884Z,16.78
2017-08-13T02:20:13.981Z,16.86
2017-08-13T02:21:12.584Z,16.81
2017-08-13T02:22:12.884Z,16.84
2017-08-13T02:23:12.591Z,16.81
2017-08-13T02:24:12.594Z,16.81
2017-08-13T02:25:13.288Z,16.84
2017-08-13T02:26:12.887Z,16.83
2017-08-13T02:27:12.593Z,16.75
2017-08-13T02:28:12.283Z,16.78
2017-08-13T02:29:12.585Z,16.74
2017-08-13T02:30:13.688Z,16.71
2017-08-13T02:31:12.591Z,16.76
2017-08-13T02:32:12.893Z,16.71
2017-08-13T02:33:12.588Z,16.72
2017-08-13T02:34:12.900Z,16.75
2017-08-13T02:35:14.236Z,16.75
2017-08-13T02:36:12.893Z,16.81
2017-08-13T02:37:12.910Z,16.87
2017-08-13T02:38:12.644Z,16.94
2017-08-13T02:39:12.903Z,16.87
2017-08-13T02:40:13.842Z,16.72
2017-08-13T02:41:12.904Z,16.78
2017-08-13T02:42:12.290Z,16.79
2017-08-13T02:43:12.961Z,16.75
2017-08-13T02:44:12.983Z,16.84
2017-08-13T02:45:14.590Z,16.81
2017-08-13T02:46:12.906Z,16.84
2017-08-13T02:47:12.907Z,16.9
2017-08-13T02:48:12.909Z,16.91
2017-08-13T02:49:12.303Z,16.83
2017-08-13T02:50:14.919Z,16.86
2017-08-13T02:51:12.910Z,16.79
2017-08-13T02:52:12.602Z,16.78
2017-08-13T02:53:12.615Z,16.84
2017-08-13T02:54:12.611Z,16.87
2017-08-13T02:55:14.681Z,16.89
2017-08-13T02:56:12.607Z,16.81
2017-08-13T02:57:12.614Z,16.81
2017-08-13T02:58:12.614Z,16.84
2017-08-13T02:59:12.918Z,16.81
2017-08-13T03:00:13.873Z,16.81
2017-08-13T03:01:12.618Z,16.84
2017-08-13T03:02:12.611Z,16.96
2017-08-13T03:03:12.917Z,16.84
2017-08-13T03:04:12.616Z,16.81
2017-08-13T03:05:14.628Z,16.94
2017-08-13T03:06:12.915Z,16.84
2017-08-13T03:07:12.919Z,16.78
2017-08-13T03:08:12.922Z,16.74
2017-08-13T03:09:12.926Z,16.87
2017-08-13T03:10:14.551Z,16.87
2017-08-13T03:11:12.622Z,16.78
2017-08-13T03:12:12.622Z,16.79
2017-08-13T03:13:12.635Z,16.71
2017-08-13T03:14:12.637Z,16.78
2017-08-13T03:15:14.421Z,16.75
2017-08-13T03:16:12.928Z,16.69
2017-08-13T03:17:12.936Z,16.71
2017-08-13T03:18:12.685Z,16.69
2017-08-13T03:19:12.940Z,16.66
2017-08-13T03:20:14.543Z,16.69
2017-08-13T03:21:12.945Z,16.54
2017-08-13T03:22:12.991Z,16.56
2017-08-13T03:23:12.998Z,16.6
2017-08-13T03:24:12.630Z,16.6
2017-08-13T03:25:14.751Z,16.71
2017-08-13T03:26:12.946Z,16.75
2017-08-13T03:27:12.934Z,16.84
2017-08-13T03:28:12.631Z,16.75
2017-08-13T03:29:12.934Z,16.91
2017-08-13T03:30:14.381Z,16.83
2017-08-13T03:31:12.642Z,16.86
2017-08-13T03:32:12.945Z,16.89
2017-08-13T03:33:12.945Z,16.79
2017-08-13T03:34:12.344Z,16.89
2017-08-13T03:35:14.810Z,16.91
2017-08-13T03:36:12.640Z,16.78
2017-08-13T03:37:12.948Z,16.81
2017-08-13T03:38:12.945Z,16.78
2017-08-13T03:39:12.945Z,16.69
2017-08-13T03:40:15.045Z,16.71
2017-08-13T03:41:12.644Z,16.74
2017-08-13T03:42:12.948Z,16.68
2017-08-13T03:43:12.957Z,16.78
2017-08-13T03:44:12.962Z,16.71
2017-08-13T03:45:15.047Z,16.71
2017-08-13T03:46:12.947Z,16.78
2017-08-13T03:47:12.965Z,16.86
2017-08-13T03:48:12.951Z,16.81
2017-08-13T03:49:12.967Z,16.83
2017-08-13T03:50:16.264Z,16.81
2017-08-13T03:51:12.651Z,16.91
2017-08-13T03:52:12.965Z,16.94
2017-08-13T03:53:12.671Z,16.86
2017-08-13T03:54:12.973Z,16.89
2017-08-13T03:55:14.333Z,16.87
2017-08-13T03:56:12.970Z,16.93
2017-08-13T03:57:12.972Z,16.96
2017-08-13T03:58:12.956Z,16.96
2017-08-13T03:59:12.967Z,16.97
2017-08-13T04:00:15.780Z,16.97
2017-08-13T04:01:12.702Z,17.01
2017-08-13T04:02:12.815Z,16.93
2017-08-13T04:03:13.000Z,17.01
2017-08-13T04:04:12.699Z,16.96
2017-08-13T04:05:14.756Z,17.05
2017-08-13T04:06:12.680Z,17.02
2017-08-13T04:07:12.713Z,17.02
2017-08-13T04:08:13.116Z,17.05
2017-08-13T04:09:13.186Z,16.97
2017-08-13T04:10:13.634Z,17.02
2017-08-13T04:11:13.527Z,17.05
2017-08-13T04:12:13.288Z,17.01
2017-08-13T04:13:13.727Z,17.02
2017-08-13T04:14:14.149Z,16.94
2017-08-13T04:15:13.876Z,16.99
2017-08-13T04:16:12.793Z,16.99
2017-08-13T04:17:13.094Z,16.99
2017-08-13T04:18:13.168Z,17.04
2017-08-13T04:19:13.091Z,16.96
2017-08-13T04:20:14.501Z,17.08
2017-08-13T04:21:12.983Z,17.08
2017-08-13T04:22:12.985Z,17.02
2017-08-13T04:23:12.684Z,17.02
2017-08-13T04:24:12.994Z,17.11
2017-08-13T04:25:14.106Z,17.06
2017-08-13T04:26:12.697Z,17.16
2017-08-13T04:27:12.988Z,17.11
2017-08-13T04:28:12.997Z,17.15
2017-08-13T04:29:12.997Z,17.12
2017-08-13T04:30:13.697Z,17.15
2017-08-13T04:31:12.398Z,17.11
2017-08-13T04:32:12.713Z,17.15
2017-08-13T04:33:13.009Z,17.15
2017-08-13T04:34:12.698Z,17.26
2017-08-13T04:35:14.618Z,17.19
2017-08-13T04:36:13.005Z,17.16
2017-08-13T04:37:12.702Z,17.19
2017-08-13T04:38:13.006Z,17.19
2017-08-13T04:39:13.005Z,17.23
2017-08-13T04:40:14.053Z,17.19
2017-08-13T04:41:13.013Z,17.23
2017-08-13T04:42:13.008Z,17.27
2017-08-13T04:43:13.015Z,17.27
2017-08-13T04:44:13.013Z,17.16
2017-08-13T04:45:14.115Z,17.2
2017-08-13T04:46:13.015Z,17.2
2017-08-13T04:47:12.717Z,17.16
2017-08-13T04:48:13.023Z,17.11
2017-08-13T04:49:13.019Z,17.11
2017-08-13T04:50:14.017Z,17.14
2017-08-13T04:51:13.020Z,17.06
2017-08-13T04:52:13.017Z,17.01
2017-08-13T04:53:13.020Z,17.02
2017-08-13T04:54:13.024Z,17.09
2017-08-13T04:55:14.447Z,17.04
2017-08-13T04:56:12.723Z,17.05
2017-08-13T04:57:12.728Z,17.04
2017-08-13T04:58:13.031Z,17.02
2017-08-13T04:59:13.039Z,17.02
2017-08-13T05:00:14.182Z,17.06
2017-08-13T05:01:13.026Z,17.04
2017-08-13T05:02:13.031Z,17.12
2017-08-13T05:03:13.026Z,17.11
2017-08-13T05:04:13.036Z,17.2
2017-08-13T05:05:14.200Z,17.38
2017-08-13T05:06:12.740Z,17.44
2017-08-13T05:07:13.040Z,17.36
2017-08-13T05:08:13.033Z,17.42
2017-08-13T05:09:12.730Z,17.39
2017-08-13T05:10:14.779Z,17.38
2017-08-13T05:11:13.039Z,17.45
2017-08-13T05:12:13.037Z,17.48
2017-08-13T05:13:12.734Z,17.54
2017-08-13T05:14:13.039Z,17.54
2017-08-13T05:15:13.987Z,17.52
2017-08-13T05:16:14.289Z,17.46
2017-08-13T05:17:13.040Z,17.57
2017-08-13T05:18:12.742Z,17.59
2017-08-13T05:19:13.052Z,17.59
2017-08-13T05:20:13.772Z,17.52
2017-08-13T05:21:13.052Z,17.49
2017-08-13T05:22:13.058Z,17.54
2017-08-13T05:23:12.750Z,17.6
2017-08-13T05:24:12.750Z,17.6
2017-08-13T05:25:14.632Z,17.65
2017-08-13T05:26:12.770Z,17.65
2017-08-13T05:27:13.051Z,17.71
2017-08-13T05:28:12.753Z,17.71
2017-08-13T05:29:13.066Z,17.76
2017-08-13T05:30:14.482Z,17.74
2017-08-13T05:31:12.759Z,17.79
2017-08-13T05:32:13.076Z,17.79
2017-08-13T05:33:12.757Z,17.74
2017-08-13T05:34:13.068Z,17.8
2017-08-13T05:35:14.070Z,17.82
2017-08-13T05:36:13.065Z,17.85
2017-08-13T05:37:13.067Z,17.79
2017-08-13T05:38:13.068Z,17.85
2017-08-13T05:39:13.067Z,17.92
2017-08-13T05:40:14.483Z,17.95
2017-08-13T05:41:13.071Z,17.97
2017-08-13T05:42:13.089Z,17.95
2017-08-13T05:43:13.083Z,17.92
2017-08-13T05:44:13.080Z,17.9
2017-08-13T05:45:14.214Z,17.9
2017-08-13T05:46:14.530Z,18.08
2017-08-13T05:47:12.784Z,18.05
2017-08-13T05:48:13.088Z,17.98
2017-08-13T05:49:12.794Z,18.05
2017-08-13T05:50:14.300Z,18.18
2017-08-13T05:51:13.089Z,18.07
2017-08-13T05:52:13.093Z,18.15
2017-08-13T05:53:12.794Z,18.22
2017-08-13T05:54:13.091Z,18.11
2017-08-13T05:55:14.195Z,18.18
2017-08-13T05:56:13.097Z,18.16
2017-08-13T05:57:13.097Z,18.15
2017-08-13T05:58:13.121Z,18.15
2017-08-13T05:59:12.810Z,18.07
2017-08-13T06:00:14.470Z,18.11
2017-08-13T06:01:12.814Z,18.1
2017-08-13T06:02:13.114Z,18.22
2017-08-13T06:03:13.127Z,18.33
2017-08-13T06:04:13.108Z,18.31
2017-08-13T06:05:14.430Z,18.26
2017-08-13T06:06:13.121Z,18.31
2017-08-13T06:07:13.114Z,18.31
2017-08-13T06:08:13.119Z,18.26
2017-08-13T06:09:12.817Z,18.37
2017-08-13T06:10:14.768Z,18.45
2017-08-13T06:11:12.824Z,18.59
2017-08-13T06:12:13.123Z,18.58
2017-08-13T06:13:13.127Z,18.6
2017-08-13T06:14:13.129Z,18.68
2017-08-13T06:15:14.811Z,18.6
2017-08-13T06:16:13.144Z,18.56
2017-08-13T06:17:13.134Z,18.53
2017-08-13T06:18:13.134Z,18.63
2017-08-13T06:19:13.144Z,18.44
2017-08-13T06:20:14.049Z,18.52
2017-08-13T06:21:13.142Z,18.53
2017-08-13T06:22:13.142Z,18.41
2017-08-13T06:23:12.849Z,18.43
2017-08-13T06:24:12.544Z,18.28
2017-08-13T06:25:14.465Z,18.33
2017-08-13T06:26:12.854Z,18.35
2017-08-13T06:27:12.850Z,18.38
2017-08-13T06:28:13.155Z,18.47
2017-08-13T06:29:13.153Z,18.53
2017-08-13T06:30:14.874Z,18.55
2017-08-13T06:31:13.159Z,18.5
2017-08-13T06:32:13.196Z,18.47
2017-08-13T06:33:13.163Z,18.56
2017-08-13T06:34:13.161Z,18.63
2017-08-13T06:35:13.850Z,18.56
2017-08-13T06:36:13.169Z,18.6
2017-08-13T06:37:13.170Z,18.68
2017-08-13T06:38:13.173Z,18.7
2017-08-13T06:39:13.173Z,18.73
2017-08-13T06:40:14.921Z,18.83
2017-08-13T06:41:13.177Z,18.84
2017-08-13T06:42:12.889Z,18.81
2017-08-13T06:43:13.192Z,18.99
2017-08-13T06:44:13.180Z,19.08
2017-08-13T06:45:14.999Z,19.14
2017-08-13T06:46:13.192Z,19.15
2017-08-13T06:47:18.093Z,19.3
2017-08-13T06:48:13.196Z,19.3
2017-08-13T06:49:13.216Z,19.47
2017-08-13T06:50:14.219Z,19.49
2017-08-13T06:51:13.194Z,19.67
2017-08-13T06:52:13.221Z,19.74
2017-08-13T06:53:13.217Z,19.76
2017-08-13T06:54:12.908Z,19.94
2017-08-13T06:55:13.722Z,19.95
2017-08-13T06:56:13.221Z,20.06
2017-08-13T06:57:12.984Z,20.19
2017-08-13T06:58:12.918Z,20.26
2017-08-13T06:59:13.219Z,20.32
2017-08-13T07:00:14.749Z,20.36
2017-08-13T07:01:12.653Z,20.26
2017-08-13T07:02:13.250Z,20.29
2017-08-13T07:03:13.230Z,20.37
2017-08-13T07:04:13.231Z,20.29
2017-08-13T07:05:14.545Z,20.24
2017-08-13T07:06:13.255Z,20.31
2017-08-13T07:07:13.254Z,20.4
2017-08-13T07:08:13.246Z,20.36
2017-08-13T07:09:12.945Z,20.37
2017-08-13T07:10:14.450Z,20.36
2017-08-13T07:11:13.266Z,20.4
2017-08-13T07:12:13.255Z,20.39
2017-08-13T07:13:13.272Z,20.31
2017-08-13T07:14:12.973Z,20.31
2017-08-13T07:15:14.934Z,20.37
2017-08-13T07:16:13.292Z,20.36
2017-08-13T07:17:12.976Z,20.58
2017-08-13T07:18:13.282Z,20.55
2017-08-13T07:19:13.286Z,20.56
2017-08-13T07:20:15.000Z,20.52
2017-08-13T07:21:12.991Z,20.58
2017-08-13T07:22:13.288Z,20.6
2017-08-13T07:23:13.292Z,20.59
2017-08-13T07:24:13.295Z,20.69
2017-08-13T07:25:14.568Z,20.59
2017-08-13T07:26:13.303Z,20.67
2017-08-13T07:27:13.005Z,20.66
2017-08-13T07:28:13.328Z,20.7
2017-08-13T07:29:13.311Z,20.82
2017-08-13T07:30:14.849Z,20.84
2017-08-13T07:31:12.725Z,20.84
2017-08-13T07:32:13.335Z,20.9
2017-08-13T07:33:13.333Z,21
2017-08-13T07:34:13.329Z,21.05
2017-08-13T07:35:14.167Z,21.05
2017-08-13T07:36:13.341Z,21.06
2017-08-13T07:37:13.337Z,20.93
2017-08-13T07:38:13.067Z,20.99
2017-08-13T07:39:13.070Z,21.02
2017-08-13T07:40:14.132Z,21.06
2017-08-13T07:41:13.375Z,21.11
2017-08-13T07:42:13.070Z,21.14
2017-08-13T07:43:13.389Z,21.07
2017-08-13T07:44:13.366Z,21.22
2017-08-13T07:45:15.152Z,21.2
2017-08-13T07:46:13.381Z,21.25
2017-08-13T07:47:13.397Z,21.42
2017-08-13T07:48:13.390Z,21.4
2017-08-13T07:49:13.392Z,21.35
2017-08-13T07:50:14.757Z,21.35
2017-08-13T07:51:13.094Z,21.22
2017-08-13T07:52:13.394Z,21.14
2017-08-13T07:53:13.399Z,21.11
2017-08-13T07:54:13.403Z,21.03
2017-08-13T07:55:14.853Z,21
2017-08-13T07:56:13.409Z,20.93
2017-08-13T07:57:13.422Z,20.85
2017-08-13T07:58:13.131Z,20.88
2017-08-13T07:59:13.425Z,21.06
2017-08-13T08:00:15.111Z,21.12
2017-08-13T08:01:13.441Z,21.18
2017-08-13T08:02:13.441Z,21.24
2017-08-13T08:03:13.440Z,21.43
2017-08-13T08:04:13.446Z,21.54
2017-08-13T08:05:14.091Z,21.58
2017-08-13T08:06:13.153Z,21.57
2017-08-13T08:07:13.451Z,21.5
2017-08-13T08:08:13.456Z,21.39
2017-08-13T08:09:13.466Z,21.4
2017-08-13T08:10:14.534Z,21.4
2017-08-13T08:11:13.470Z,21.39
2017-08-13T08:12:13.472Z,21.48
2017-08-13T08:13:13.180Z,21.45
2017-08-13T08:14:13.479Z,21.42
2017-08-13T08:15:14.771Z,21.35
2017-08-13T08:16:13.507Z,21.4
2017-08-13T08:17:13.205Z,21.37
2017-08-13T08:18:18.713Z,21.37
2017-08-13T08:19:13.514Z,21.5
2017-08-13T08:20:14.408Z,21.5
2017-08-13T08:21:13.567Z,21.67
2017-08-13T08:22:13.520Z,21.82
2017-08-13T08:23:13.223Z,21.95
2017-08-13T08:24:13.537Z,22.07
2017-08-13T08:25:15.590Z,22.15
2017-08-13T08:26:13.233Z,22.26
2017-08-13T08:27:13.524Z,22.47
2017-08-13T08:28:13.535Z,22.59
2017-08-13T08:29:13.535Z,22.8
2017-08-13T08:30:14.705Z,22.88
2017-08-13T08:31:13.547Z,23.12
2017-08-13T08:32:13.546Z,23.15
2017-08-13T08:33:13.553Z,23.1
2017-08-13T08:34:13.566Z,23.1
2017-08-13T08:35:14.208Z,23.47
2017-08-13T08:36:13.265Z,24.01
2017-08-13T08:37:13.572Z,24.81
2017-08-13T08:38:13.290Z,25.65
2017-08-13T08:39:13.583Z,26.21
2017-08-13T08:40:15.033Z,26.71
2017-08-13T08:41:13.608Z,26.89
2017-08-13T08:42:13.310Z,26.95
2017-08-13T08:43:13.614Z,27.37
2017-08-13T08:44:13.342Z,27.92
2017-08-13T08:45:15.106Z,28.22
2017-08-13T08:46:13.339Z,28.15
2017-08-13T08:47:13.646Z,27.83
2017-08-13T08:48:13.651Z,27.71
2017-08-13T08:49:13.650Z,27.67
2017-08-13T08:50:14.816Z,27.4
2017-08-13T08:51:13.362Z,27.4
2017-08-13T08:52:13.676Z,27.33
2017-08-13T08:53:13.372Z,27.26
2017-08-13T08:54:13.687Z,27.22
2017-08-13T08:55:14.854Z,27.26
2017-08-13T08:56:13.694Z,27.12
2017-08-13T08:57:13.710Z,27.1
2017-08-13T08:58:13.717Z,27.2
2017-08-13T08:59:13.719Z,27.21
2017-08-13T09:00:15.223Z,27.1
2017-08-13T09:01:13.729Z,26.85
2017-08-13T09:02:13.442Z,26.84
2017-08-13T09:03:13.442Z,26.71
2017-08-13T09:04:13.759Z,26.68
2017-08-13T09:05:15.183Z,26.53
2017-08-13T09:06:13.769Z,26.41
2017-08-13T09:07:13.777Z,26.31
2017-08-13T09:08:13.779Z,26.29
2017-08-13T09:09:13.793Z,26.38
2017-08-13T09:10:14.557Z,26.31
2017-08-13T09:11:13.808Z,26.19
2017-08-13T09:12:13.814Z,26.18
2017-08-13T09:13:13.516Z,25.99
2017-08-13T09:14:13.817Z,25.65
2017-08-13T09:15:14.946Z,25.46
2017-08-13T09:16:13.833Z,25.26
2017-08-13T09:17:13.839Z,24.96
2017-08-13T09:18:13.845Z,24.78
2017-08-13T09:19:13.561Z,24.66
2017-08-13T09:20:15.062Z,24.58
2017-08-13T09:21:13.864Z,24.47
2017-08-13T09:22:13.886Z,24.17
2017-08-13T09:23:13.576Z,23.99
2017-08-13T09:24:13.884Z,23.99
2017-08-13T09:25:15.255Z,23.93
2017-08-13T09:26:13.321Z,23.84
2017-08-13T09:27:13.312Z,23.92
2017-08-13T09:28:13.607Z,24.13
2017-08-13T09:29:13.914Z,24.16
2017-08-13T09:30:14.866Z,24.29
2017-08-13T09:31:13.630Z,24.5
2017-08-13T09:32:13.627Z,24.43
2017-08-13T09:33:13.967Z,24.45
2017-08-13T09:34:13.995Z,24.5
2017-08-13T09:35:15.369Z,24.5
2017-08-13T09:36:13.948Z,24.47
2017-08-13T09:37:13.964Z,24.5
2017-08-13T09:38:13.965Z,24.3
2017-08-13T09:39:13.728Z,24.17
2017-08-13T09:40:14.694Z,24.16
2017-08-13T09:41:13.682Z,23.98
2017-08-13T09:42:13.988Z,23.81
2017-08-13T09:43:13.999Z,23.61
2017-08-13T09:44:14.001Z,23.56
2017-08-13T09:45:15.145Z,23.51
2017-08-13T09:46:13.713Z,23.41
2017-08-13T09:47:14.014Z,23.54
2017-08-13T09:48:14.013Z,23.63
2017-08-13T09:49:19.272Z,23.88
2017-08-13T09:50:15.274Z,23.92
2017-08-13T09:51:14.056Z,23.88
2017-08-13T09:52:14.032Z,23.88
2017-08-13T09:53:14.041Z,23.87
2017-08-13T09:54:14.053Z,23.92
2017-08-13T09:55:15.120Z,23.92
2017-08-13T09:56:14.062Z,23.93
2017-08-13T09:57:14.058Z,23.93
2017-08-13T09:58:14.064Z,24.01
2017-08-13T09:59:14.088Z,24.02
2017-08-13T10:00:14.384Z,23.84
2017-08-13T10:01:14.095Z,23.81
2017-08-13T10:02:13.786Z,23.61
2017-08-13T10:03:13.789Z,23.69
2017-08-13T10:04:13.798Z,23.8
2017-08-13T10:05:15.236Z,23.88
2017-08-13T10:06:13.815Z,24.14
2017-08-13T10:07:14.105Z,24.33
2017-08-13T10:08:13.819Z,24.5
2017-08-13T10:09:14.122Z,24.47
2017-08-13T10:10:15.646Z,24.42
2017-08-13T10:11:14.126Z,24.38
2017-08-13T10:12:14.137Z,24.45
2017-08-13T10:13:14.149Z,24.5
2017-08-13T10:14:14.160Z,24.53
2017-08-13T10:15:14.989Z,24.6
2017-08-13T10:16:14.217Z,24.74
2017-08-13T10:17:13.864Z,24.77
2017-08-13T10:18:14.206Z,24.85
2017-08-13T10:19:13.861Z,24.91
2017-08-13T10:20:15.543Z,24.85
2017-08-13T10:21:14.210Z,24.91
2017-08-13T10:22:14.210Z,24.8
2017-08-13T10:23:13.896Z,24.91
2017-08-13T10:24:14.258Z,24.88
2017-08-13T10:25:15.761Z,24.88
2017-08-13T10:26:14.205Z,24.92
2017-08-13T10:27:14.250Z,24.89
2017-08-13T10:28:13.917Z,24.99
2017-08-13T10:29:13.919Z,24.99
2017-08-13T10:30:15.469Z,25.08
2017-08-13T10:31:14.233Z,24.95
2017-08-13T10:32:14.255Z,24.81
2017-08-13T10:33:14.252Z,24.66
2017-08-13T10:34:14.249Z,24.78
2017-08-13T10:35:15.281Z,24.84
2017-08-13T10:36:13.966Z,24.96
2017-08-13T10:37:13.962Z,24.99
2017-08-13T10:38:13.970Z,24.99
2017-08-13T10:39:14.272Z,24.88
2017-08-13T10:40:15.056Z,24.73
2017-08-13T10:41:14.357Z,24.57
2017-08-13T10:42:14.290Z,24.51
2017-08-13T10:43:14.185Z,24.32
2017-08-13T10:44:13.997Z,24.43
2017-08-13T10:45:14.785Z,24.53
2017-08-13T10:46:14.316Z,24.7
2017-08-13T10:47:14.015Z,24.91
2017-08-13T10:48:14.019Z,24.98
2017-08-13T10:49:14.326Z,25.06
2017-08-13T10:50:16.453Z,25.23
2017-08-13T10:51:14.037Z,25.32
2017-08-13T10:52:14.055Z,25.17
2017-08-13T10:53:13.754Z,25.41
2017-08-13T10:54:14.062Z,25.5
2017-08-13T10:55:17.259Z,25.53
2017-08-13T10:56:14.376Z,25.43
2017-08-13T10:57:14.369Z,25.28
2017-08-13T10:58:14.374Z,25.06
2017-08-13T10:59:14.100Z,24.99
2017-08-13T11:00:15.202Z,25.11
2017-08-13T11:01:14.089Z,25.11
2017-08-13T11:02:14.403Z,25.22
2017-08-13T11:03:14.104Z,25.35
2017-08-13T11:04:14.407Z,25.47
2017-08-13T11:05:15.843Z,25.55
2017-08-13T11:06:14.128Z,25.53
2017-08-13T11:07:14.432Z,25.62
2017-08-13T11:08:14.431Z,25.4
2017-08-13T11:09:14.438Z,25.28
2017-08-13T11:10:15.700Z,25.25
2017-08-13T11:11:14.443Z,25.26
2017-08-13T11:12:14.456Z,25.26
2017-08-13T11:13:14.458Z,25.22
2017-08-13T11:14:14.468Z,24.98
2017-08-13T11:15:15.825Z,24.8
2017-08-13T11:16:14.486Z,24.84
2017-08-13T11:17:14.504Z,24.73
2017-08-13T11:18:14.189Z,24.76
2017-08-13T11:19:14.192Z,24.73
2017-08-13T11:20:17.160Z,24.84
2017-08-13T11:21:14.515Z,24.84
2017-08-13T11:22:14.211Z,25.01
2017-08-13T11:23:14.526Z,25.17
2017-08-13T11:24:14.234Z,25.41
2017-08-13T11:25:15.442Z,25.53
2017-08-13T11:26:14.540Z,25.69
2017-08-13T11:27:13.940Z,25.8
2017-08-13T11:28:14.539Z,25.83
2017-08-13T11:29:14.555Z,25.93
2017-08-13T11:30:15.848Z,26.15
2017-08-13T11:31:14.562Z,26.15
2017-08-13T11:32:14.577Z,26.03
2017-08-13T11:33:14.578Z,25.88
2017-08-13T11:34:14.584Z,25.77
2017-08-13T11:35:15.465Z,25.51
2017-08-13T11:36:14.603Z,25.23
2017-08-13T11:37:14.297Z,25.16
2017-08-13T11:38:14.634Z,25.28
2017-08-13T11:39:14.300Z,25.43
2017-08-13T11:40:15.623Z,25.47
2017-08-13T11:41:14.624Z,25.59
2017-08-13T11:42:14.624Z,25.62
2017-08-13T11:43:14.325Z,25.59
2017-08-13T11:44:14.647Z,25.6
2017-08-13T11:45:15.838Z,25.54
2017-08-13T11:46:14.646Z,25.28
2017-08-13T11:47:14.367Z,25.04
2017-08-13T11:48:14.665Z,24.84
2017-08-13T11:49:14.670Z,24.68
2017-08-13T11:50:15.489Z,24.6
2017-08-13T11:51:16.578Z,24.54
2017-08-13T11:52:14.704Z,24.28
2017-08-13T11:53:14.690Z,24.11
2017-08-13T11:54:14.083Z,24.13
2017-08-13T11:55:16.089Z,24.24
2017-08-13T11:56:14.721Z,24.24
2017-08-13T11:57:14.727Z,24.3
2017-08-13T11:58:14.723Z,24.29
2017-08-13T11:59:14.721Z,24.29
2017-08-13T12:00:15.707Z,24.4
2017-08-13T12:01:14.746Z,24.5
2017-08-13T12:02:14.428Z,24.58
2017-08-13T12:03:14.750Z,24.68
2017-08-13T12:04:14.751Z,24.7
2017-08-13T12:05:16.137Z,24.81
2017-08-13T12:06:14.519Z,24.78
2017-08-13T12:07:14.461Z,24.86
2017-08-13T12:08:14.471Z,24.85
2017-08-13T12:09:14.780Z,24.78
2017-08-13T12:10:15.587Z,24.95
2017-08-13T12:11:14.798Z,24.92
2017-08-13T12:12:14.789Z,24.85
2017-08-13T12:13:14.798Z,24.81
2017-08-13T12:14:14.819Z,24.78
2017-08-13T12:15:15.800Z,24.77
2017-08-13T12:16:14.819Z,24.8
2017-08-13T12:17:14.812Z,24.84
2017-08-13T12:18:14.842Z,24.81
2017-08-13T12:19:14.228Z,24.65
2017-08-13T12:20:15.639Z,24.69
2017-08-13T12:21:14.583Z,24.7
2017-08-13T12:22:14.833Z,24.65
2017-08-13T12:23:14.556Z,24.54
2017-08-13T12:24:14.845Z,24.48
2017-08-13T12:25:16.552Z,24.69
2017-08-13T12:26:14.856Z,24.8
2017-08-13T12:27:14.874Z,24.84
2017-08-13T12:28:14.561Z,24.95
2017-08-13T12:29:14.568Z,25.06
2017-08-13T12:30:16.505Z,25.06
2017-08-13T12:31:14.591Z,25.11
2017-08-13T12:32:14.889Z,25.17
2017-08-13T12:33:14.900Z,25.31
2017-08-13T12:34:14.900Z,25.29
2017-08-13T12:35:16.121Z,25.44
2017-08-13T12:36:14.960Z,25.33
2017-08-13T12:37:14.912Z,25.23
2017-08-13T12:38:14.669Z,25.16
2017-08-13T12:39:14.952Z,25.04
2017-08-13T12:40:15.816Z,25.03
2017-08-13T12:41:14.633Z,24.86
2017-08-13T12:42:14.946Z,24.78
2017-08-13T12:43:14.956Z,24.54
2017-08-13T12:44:14.656Z,24.45
2017-08-13T12:45:16.558Z,24.28
2017-08-13T12:46:14.965Z,24.13
2017-08-13T12:47:14.981Z,24.03
2017-08-13T12:48:14.976Z,23.95
2017-08-13T12:49:14.983Z,23.99
2017-08-13T12:50:16.236Z,23.92
2017-08-13T12:51:15.037Z,23.95
2017-08-13T12:52:14.991Z,24.05
2017-08-13T12:53:15.010Z,24.02
2017-08-13T12:54:15.003Z,24.08
2017-08-13T12:55:16.432Z,24.08